sensor_id;sensor_type;location;lat;lon;timestamp;P1;durP1;ratioP1;P2;durP2;ratioP2
52102;SDS011;38101;53.126;6.878;2023-12-14T16:06:12;21.70;;;11.32;;
52102;SDS011;38101;53.126;6.878;2023-12-14T16:08:47;17.60;;;11.15;;
52102;SDS011;38101;53.126;6.878;2023-12-14T16:11:13;20.13;;;11.35;;
52102;SDS011;38101;53.126;6.878;2023-12-14T16:13:38;18.63;;;10.88;;
52102;SDS011;38101;53.126;6.878;2023-12-14T16:16:08;17.92;;;9.98;;
52102;SDS011;38101;53.126;6.878;2023-12-14T16:18:37;18.25;;;10.85;;
52102;SDS011;38101;53.126;6.878;2023-12-14T16:21:06;20.60;;;10.68;;
52102;SDS011;38101;53.126;6.878;2023-12-14T16:23:36;15.48;;;10.48;;
52102;SDS011;38101;53.126;6.878;2023-12-14T16:26:04;17.17;;;10.18;;
52102;SDS011;38101;53.126;6.878;2023-12-14T16:28:30;17.58;;;10.98;;
52102;SDS011;38101;53.126;6.878;2023-12-14T16:30:56;17.02;;;10.68;;
52102;SDS011;38101;53.126;6.878;2023-12-14T16:33:22;17.60;;;10.20;;
52102;SDS011;38101;53.126;6.878;2023-12-14T16:35:48;17.48;;;9.82;;
52102;SDS011;38101;53.126;6.878;2023-12-14T16:38:13;16.48;;;9.93;;
52102;SDS011;38101;53.126;6.878;2023-12-14T16:40:39;18.75;;;11.40;;
52102;SDS011;38101;53.126;6.878;2023-12-14T16:43:05;18.23;;;11.00;;
52102;SDS011;38101;53.126;6.878;2023-12-14T16:45:31;17.52;;;11.13;;
52102;SDS011;38101;53.126;6.878;2023-12-14T16:47:56;19.25;;;10.85;;
52102;SDS011;38101;53.126;6.878;2023-12-14T16:50:22;16.15;;;10.57;;
52102;SDS011;38101;53.126;6.878;2023-12-14T16:52:48;19.15;;;12.45;;
52102;SDS011;38101;53.126;6.878;2023-12-14T16:55:14;20.23;;;13.25;;
52102;SDS011;38101;53.126;6.878;2023-12-14T16:57:39;18.50;;;12.48;;
52102;SDS011;38101;53.126;6.878;2023-12-14T17:00:05;20.02;;;12.90;;
52102;SDS011;38101;53.126;6.878;2023-12-14T17:02:31;15.73;;;11.57;;
52102;SDS011;38101;53.126;6.878;2023-12-14T17:04:57;19.75;;;12.40;;
52102;SDS011;38101;53.126;6.878;2023-12-14T17:07:24;16.98;;;11.05;;
52102;SDS011;38101;53.126;6.878;2023-12-14T17:09:50;18.38;;;11.48;;
52102;SDS011;38101;53.126;6.878;2023-12-14T17:12:15;15.55;;;10.50;;
52102;SDS011;38101;53.126;6.878;2023-12-14T17:14:41;17.80;;;9.95;;
52102;SDS011;38101;53.126;6.878;2023-12-14T17:17:07;16.35;;;10.98;;
52102;SDS011;38101;53.126;6.878;2023-12-14T17:19:32;18.15;;;11.18;;
52102;SDS011;38101;53.126;6.878;2023-12-14T17:21:59;15.85;;;10.38;;
52102;SDS011;38101;53.126;6.878;2023-12-14T17:24:24;15.75;;;10.32;;
52102;SDS011;38101;53.126;6.878;2023-12-14T17:27:01;16.95;;;10.68;;
52102;SDS011;38101;53.126;6.878;2023-12-14T17:29:31;17.02;;;10.18;;
52102;SDS011;38101;53.126;6.878;2023-12-14T17:31:57;17.05;;;9.95;;
52102;SDS011;38101;53.126;6.878;2023-12-14T17:34:23;16.40;;;10.98;;
52102;SDS011;38101;53.126;6.878;2023-12-14T17:36:57;18.17;;;10.95;;
52102;SDS011;38101;53.126;6.878;2023-12-14T17:39:25;16.10;;;11.13;;
52102;SDS011;38101;53.126;6.878;2023-12-14T17:41:51;17.20;;;11.32;;
52102;SDS011;38101;53.126;6.878;2023-12-14T17:44:18;17.08;;;11.38;;
52102;SDS011;38101;53.126;6.878;2023-12-14T17:47:08;20.23;;;11.18;;
52102;SDS011;38101;53.126;6.878;2023-12-14T17:49:41;14.43;;;9.75;;
52102;SDS011;38101;53.126;6.878;2023-12-14T17:52:07;13.70;;;9.27;;
52102;SDS011;38101;53.126;6.878;2023-12-14T17:54:36;14.57;;;9.50;;
52102;SDS011;38101;53.126;6.878;2023-12-14T17:57:02;13.88;;;8.85;;
52102;SDS011;38101;53.126;6.878;2023-12-14T17:59:28;14.63;;;9.90;;
52102;SDS011;38101;53.126;6.878;2023-12-14T18:02:26;14.07;;;8.77;;
52102;SDS011;38101;53.126;6.878;2023-12-14T18:04:55;14.90;;;9.10;;
52102;SDS011;38101;53.126;6.878;2023-12-14T18:07:25;16.77;;;10.10;;
52102;SDS011;38101;53.126;6.878;2023-12-14T18:09:51;16.67;;;9.55;;
52102;SDS011;38101;53.126;6.878;2023-12-14T18:12:17;13.65;;;9.38;;
52102;SDS011;38101;53.126;6.878;2023-12-14T18:14:43;14.05;;;9.10;;
52102;SDS011;38101;53.126;6.878;2023-12-14T18:17:09;16.13;;;10.07;;
52102;SDS011;38101;53.126;6.878;2023-12-14T18:19:38;13.18;;;9.02;;
52102;SDS011;38101;53.126;6.878;2023-12-14T18:24:59;16.40;;;8.82;;
52102;SDS011;38101;53.126;6.878;2023-12-14T18:27:25;16.42;;;9.10;;
52102;SDS011;38101;53.126;6.878;2023-12-14T18:29:52;16.13;;;9.55;;
52102;SDS011;38101;53.126;6.878;2023-12-14T18:32:22;15.50;;;9.70;;
52102;SDS011;38101;53.126;6.878;2023-12-14T18:35:20;15.13;;;9.25;;
52102;SDS011;38101;53.126;6.878;2023-12-14T18:38:01;14.13;;;8.98;;
52102;SDS011;38101;53.126;6.878;2023-12-14T18:40:30;15.40;;;9.48;;
52102;SDS011;38101;53.126;6.878;2023-12-14T18:43:08;15.13;;;9.88;;
52102;SDS011;38101;53.126;6.878;2023-12-14T18:45:34;17.88;;;10.32;;
52102;SDS011;38101;53.126;6.878;2023-12-14T18:48:04;14.32;;;9.43;;
52102;SDS011;38101;53.126;6.878;2023-12-14T18:50:44;15.77;;;9.55;;
52102;SDS011;38101;53.126;6.878;2023-12-14T18:53:10;16.58;;;9.50;;
52102;SDS011;38101;53.126;6.878;2023-12-14T18:55:36;13.80;;;9.23;;
52102;SDS011;38101;53.126;6.878;2023-12-14T18:58:02;14.27;;;9.27;;
52102;SDS011;38101;53.126;6.878;2023-12-14T19:00:29;15.77;;;9.18;;
52102;SDS011;38101;53.126;6.878;2023-12-14T19:02:58;15.40;;;9.82;;
52102;SDS011;38101;53.126;6.878;2023-12-14T19:05:33;15.05;;;9.35;;
52102;SDS011;38101;53.126;6.878;2023-12-14T19:08:11;14.90;;;9.35;;
52102;SDS011;38101;53.126;6.878;2023-12-14T19:10:39;14.20;;;9.07;;
52102;SDS011;38101;53.126;6.878;2023-12-14T19:13:06;17.05;;;9.98;;
52102;SDS011;38101;53.126;6.878;2023-12-14T19:15:31;19.15;;;11.02;;
52102;SDS011;38101;53.126;6.878;2023-12-14T19:17:57;17.83;;;10.95;;
52102;SDS011;38101;53.126;6.878;2023-12-14T19:20:23;15.30;;;10.25;;
52102;SDS011;38101;53.126;6.878;2023-12-14T19:22:49;16.65;;;11.23;;
52102;SDS011;38101;53.126;6.878;2023-12-14T19:25:15;16.55;;;9.90;;
52102;SDS011;38101;53.126;6.878;2023-12-14T19:27:41;15.35;;;9.98;;
52102;SDS011;38101;53.126;6.878;2023-12-14T19:30:12;19.52;;;10.80;;
52102;SDS011;38101;53.126;6.878;2023-12-14T19:32:40;17.67;;;11.30;;
52102;SDS011;38101;53.126;6.878;2023-12-14T19:35:06;16.90;;;10.63;;
52102;SDS011;38101;53.126;6.878;2023-12-14T19:37:32;17.98;;;11.45;;
52102;SDS011;38101;53.126;6.878;2023-12-14T19:39:58;20.25;;;11.82;;
52102;SDS011;38101;53.126;6.878;2023-12-14T19:42:26;16.88;;;10.82;;
52102;SDS011;38101;53.126;6.878;2023-12-14T19:44:52;20.13;;;12.38;;
52102;SDS011;38101;53.126;6.878;2023-12-14T19:47:18;21.63;;;12.75;;
52102;SDS011;38101;53.126;6.878;2023-12-14T19:49:43;21.35;;;13.75;;
52102;SDS011;38101;53.126;6.878;2023-12-14T19:52:16;18.35;;;11.82;;
52102;SDS011;38101;53.126;6.878;2023-12-14T19:54:47;19.25;;;12.20;;
52102;SDS011;38101;53.126;6.878;2023-12-14T19:57:13;21.58;;;12.55;;
52102;SDS011;38101;53.126;6.878;2023-12-14T19:59:39;18.15;;;12.25;;
52102;SDS011;38101;53.126;6.878;2023-12-14T20:02:05;14.88;;;9.82;;
52102;SDS011;38101;53.126;6.878;2023-12-14T20:04:31;16.90;;;10.95;;
52102;SDS011;38101;53.126;6.878;2023-12-14T20:06:57;15.30;;;10.30;;
52102;SDS011;38101;53.126;6.878;2023-12-14T20:09:23;17.42;;;10.50;;
52102;SDS011;38101;53.126;6.878;2023-12-14T20:11:49;16.80;;;11.45;;
52102;SDS011;38101;53.126;6.878;2023-12-14T20:14:15;17.17;;;10.50;;
52102;SDS011;38101;53.126;6.878;2023-12-14T20:16:45;18.40;;;10.75;;
52102;SDS011;38101;53.126;6.878;2023-12-14T20:19:12;16.85;;;11.02;;
52102;SDS011;38101;53.126;6.878;2023-12-14T20:21:38;18.23;;;11.15;;
